createdAt,value
2018-11-04T00:00:21.959Z,101209.00
2018-11-04T00:02:50.369Z,101208.27
2018-11-04T00:05:18.620Z,101207.63
2018-11-04T00:07:48.197Z,101215.14
2018-11-04T00:10:16.349Z,101213.71
2018-11-04T00:12:44.465Z,101203.27
2018-11-04T00:15:12.615Z,101204.31
2018-11-04T00:17:40.768Z,101205.32
2018-11-04T00:20:12.150Z,101190.00
2018-11-04T00:22:40.833Z,101189.50
2018-11-04T00:25:11.383Z,101180.18
2018-11-04T00:27:40.189Z,101172.24
2018-11-04T00:30:11.781Z,101182.12
2018-11-04T00:32:40.528Z,101182.56
2018-11-04T00:35:09.011Z,101181.08
2018-11-04T00:37:37.340Z,101183.77
2018-11-04T00:40:06.131Z,101173.84
2018-11-04T00:42:34.991Z,101174.20
2018-11-04T00:45:03.231Z,101175.48
2018-11-04T00:47:31.327Z,101172.83
2018-11-04T00:49:59.453Z,101165.45
2018-11-04T00:52:27.628Z,101169.23
2018-11-04T00:54:56.476Z,101175.27
2018-11-04T00:57:24.619Z,101167.64
2018-11-04T00:59:53.436Z,101171.47
2018-11-04T01:02:21.538Z,101164.05
2018-11-04T01:04:49.779Z,101167.05
2018-11-04T01:07:17.906Z,101161.52
2018-11-04T01:09:46.047Z,101159.02
2018-11-04T01:12:15.078Z,101150.04
2018-11-04T01:14:43.169Z,101147.79
2018-11-04T01:17:11.318Z,101143.95
2018-11-04T01:19:39.462Z,101138.61
2018-11-04T01:22:07.584Z,101130.58
2018-11-04T01:24:35.740Z,101134.84
2018-11-04T01:27:03.908Z,101134.97
2018-11-04T01:29:32.041Z,101143.95
2018-11-04T01:32:00.181Z,101133.28
2018-11-04T01:34:28.833Z,101127.25
2018-11-04T01:36:56.914Z,101124.30
2018-11-04T01:39:25.018Z,101115.17
2018-11-04T01:41:53.134Z,101114.60
2018-11-04T01:44:21.256Z,101113.52
2018-11-04T01:46:49.431Z,101104.70
2018-11-04T01:49:18.209Z,101100.06
2018-11-04T01:51:46.396Z,101100.97
2018-11-04T01:54:14.532Z,101097.00
2018-11-04T01:56:42.626Z,101087.19
2018-11-04T01:59:11.728Z,101086.75
2018-11-04T02:01:39.790Z,101089.50
2018-11-04T02:04:07.914Z,101088.78
2018-11-04T02:06:36.906Z,101083.53
2018-11-04T02:09:08.333Z,101085.69
2018-11-04T02:11:36.582Z,101078.89
2018-11-04T02:14:04.786Z,101078.05
2018-11-04T02:16:33.042Z,101083.70
2018-11-04T02:19:01.166Z,101077.30
2018-11-04T02:21:29.306Z,101068.38
2018-11-04T02:23:57.446Z,101072.11
2018-11-04T02:26:25.597Z,101060.94
2018-11-04T02:28:53.908Z,101056.77
2018-11-04T02:31:22.037Z,101053.87
2018-11-04T02:33:50.255Z,101063.89
2018-11-04T02:36:18.369Z,101059.45
2018-11-04T02:38:46.445Z,101055.48
2018-11-04T02:41:14.593Z,101055.83
2018-11-04T02:43:42.685Z,101053.73
2018-11-04T02:46:10.915Z,101039.22
2018-11-04T02:48:39.000Z,101032.82
2018-11-04T02:51:07.139Z,101031.58
2018-11-04T02:53:36.112Z,101032.41
2018-11-04T02:56:04.641Z,101026.66
2018-11-04T02:58:32.757Z,101017.66
2018-11-04T03:01:01.674Z,101021.00
2018-11-04T03:03:29.773Z,101021.20
2018-11-04T03:05:57.965Z,101023.09
2018-11-04T03:08:26.102Z,101020.39
2018-11-04T03:10:54.234Z,101018.44
2018-11-04T03:13:22.487Z,101012.44
2018-11-04T03:15:50.612Z,101019.48
2018-11-04T03:18:18.876Z,101018.84
2018-11-04T03:20:46.966Z,101012.64
2018-11-04T03:23:15.155Z,101015.44
2018-11-04T03:25:43.274Z,101004.33
2018-11-04T03:28:11.403Z,101005.03
2018-11-04T03:30:40.197Z,101000.41
2018-11-04T03:33:08.916Z,100996.17
2018-11-04T03:35:37.181Z,100992.19
2018-11-04T03:38:06.008Z,100996.02
2018-11-04T03:40:34.223Z,100988.45
2018-11-04T03:43:03.326Z,100987.62
2018-11-04T03:45:31.400Z,100983.41
2018-11-04T03:47:59.492Z,100982.57
2018-11-04T03:50:27.757Z,100979.03
2018-11-04T03:53:00.389Z,100967.34
2018-11-04T03:55:28.539Z,100975.55
2018-11-04T03:57:56.686Z,100977.80
2018-11-04T04:00:25.357Z,100973.14
2018-11-04T04:02:53.497Z,100967.47
2018-11-04T04:05:21.598Z,100968.29
2018-11-04T04:07:49.726Z,100963.44
2018-11-04T04:10:17.850Z,100961.98
2018-11-04T04:12:45.985Z,100963.38
2018-11-04T04:15:14.156Z,100955.08
2018-11-04T04:17:42.906Z,100956.63
2018-11-04T04:20:11.006Z,100958.23
2018-11-04T04:22:39.192Z,100953.42
2018-11-04T04:25:07.751Z,100947.89
2018-11-04T04:27:35.944Z,100947.13
2018-11-04T04:30:06.429Z,100948.70
2018-11-04T04:32:35.201Z,100947.72
2018-11-04T04:35:03.400Z,100931.45
2018-11-04T04:37:31.573Z,100924.29
2018-11-04T04:39:59.676Z,100925.29
2018-11-04T04:42:27.807Z,100922.94
2018-11-04T04:44:55.918Z,100928.00
2018-11-04T04:47:24.147Z,100921.25
2018-11-04T04:49:52.227Z,100917.49
2018-11-04T04:52:20.365Z,100916.55
2018-11-04T04:54:48.475Z,100918.33
2018-11-04T04:57:16.623Z,100926.86
2018-11-04T04:59:44.777Z,100913.38
2018-11-04T05:02:13.039Z,100912.24
2018-11-04T05:04:41.220Z,100898.55
2018-11-04T05:07:09.447Z,100901.96
2018-11-04T05:09:38.468Z,100908.48
2018-11-04T05:12:07.587Z,100897.31
2018-11-04T05:14:35.853Z,100896.27
2018-11-04T05:17:03.983Z,100890.67
2018-11-04T05:19:33.089Z,100890.37
2018-11-04T05:22:01.497Z,100889.32
2018-11-04T05:24:29.844Z,100890.16
2018-11-04T05:26:57.933Z,100895.05
2018-11-04T05:29:26.027Z,100890.95
2018-11-04T05:31:56.158Z,100896.89
2018-11-04T05:34:24.373Z,100895.28
2018-11-04T05:36:52.752Z,100894.95
2018-11-04T05:39:20.869Z,100895.75
2018-11-04T05:41:48.963Z,100891.56
2018-11-04T05:44:17.113Z,100891.07
2018-11-04T05:46:45.246Z,100897.48
2018-11-04T05:49:13.438Z,100890.03
2018-11-04T05:51:42.246Z,100889.94
2018-11-04T05:54:10.404Z,100891.50
2018-11-04T05:56:38.494Z,100896.35
2018-11-04T05:59:07.954Z,100896.69
2018-11-04T06:01:36.070Z,100904.22
2018-11-04T06:04:04.354Z,100903.08
2018-11-04T06:06:32.524Z,100898.33
2018-11-04T06:09:00.677Z,100896.19
2018-11-04T06:11:29.834Z,100903.13
2018-11-04T06:13:57.961Z,100904.77
2018-11-04T06:16:27.087Z,100914.93
2018-11-04T06:18:55.201Z,100911.31
2018-11-04T06:21:23.323Z,100909.97
2018-11-04T06:23:51.464Z,100919.33
2018-11-04T06:26:19.583Z,100917.64
2018-11-04T06:28:47.704Z,100907.81
2018-11-04T06:31:15.840Z,100916.00
2018-11-04T06:33:44.903Z,100913.72
2018-11-04T06:36:13.647Z,100911.52
2018-11-04T06:38:42.857Z,100918.05
2018-11-04T06:41:11.530Z,100913.38
2018-11-04T06:43:39.558Z,100906.26
2018-11-04T06:46:07.683Z,100912.67
2018-11-04T06:48:35.860Z,100909.80
2018-11-04T06:51:04.160Z,100911.66
2018-11-04T06:53:32.265Z,100905.20
2018-11-04T06:56:00.901Z,100900.02
2018-11-04T06:58:29.056Z,100902.72
2018-11-04T07:00:57.185Z,100904.61
2018-11-04T07:03:25.339Z,100912.45
2018-11-04T07:05:54.457Z,100908.66
2018-11-04T07:08:22.615Z,100907.52
2018-11-04T07:10:50.730Z,100903.05
2018-11-04T07:13:18.837Z,100896.30
2018-11-04T07:15:46.976Z,100897.87
2018-11-04T07:18:15.335Z,100894.24
2018-11-04T07:20:43.459Z,100901.20
2018-11-04T07:23:11.575Z,100896.20
2018-11-04T07:25:39.769Z,100899.20
2018-11-04T07:28:07.896Z,100894.23
2018-11-04T07:30:36.036Z,100896.44
2018-11-04T07:33:04.256Z,100909.19
2018-11-04T07:35:32.414Z,100907.94
2018-11-04T07:38:03.248Z,100913.12
2018-11-04T07:40:32.090Z,100907.09
2018-11-04T07:43:00.239Z,100905.64
2018-11-04T07:45:28.915Z,100904.28
2018-11-04T07:47:57.002Z,100909.37
2018-11-04T07:50:25.165Z,100906.84
2018-11-04T07:52:54.222Z,100907.91
2018-11-04T07:55:22.438Z,100909.98
2018-11-04T07:57:50.539Z,100907.98
2018-11-04T08:00:19.514Z,100896.57
2018-11-04T08:02:47.760Z,100904.27
2018-11-04T08:05:15.846Z,100908.39
2018-11-04T08:07:44.205Z,100904.77
2018-11-04T08:10:13.264Z,100904.67
2018-11-04T08:12:41.452Z,100898.52
2018-11-04T08:15:11.178Z,100882.09
2018-11-04T08:17:40.223Z,100884.34
2018-11-04T08:20:09.241Z,100892.14
2018-11-04T08:22:37.409Z,100886.72
2018-11-04T08:25:06.367Z,100886.22
2018-11-04T08:27:34.480Z,100882.16
2018-11-04T08:30:02.701Z,100881.94
2018-11-04T08:32:31.700Z,100882.81
2018-11-04T08:34:59.847Z,100885.59
2018-11-04T08:37:27.974Z,100881.25
2018-11-04T08:39:56.255Z,100875.84
2018-11-04T08:42:24.909Z,100873.11
2018-11-04T08:44:54.173Z,100868.17
2018-11-04T08:47:22.399Z,100859.00
2018-11-04T08:49:50.566Z,100860.68
2018-11-04T08:52:19.179Z,100863.20
2018-11-04T08:54:48.104Z,100858.95
2018-11-04T08:57:16.240Z,100863.12
2018-11-04T08:59:44.390Z,100863.37
2018-11-04T09:02:12.664Z,100850.69
2018-11-04T09:04:40.870Z,100851.68
2018-11-04T09:07:10.030Z,100854.08
2018-11-04T09:09:38.244Z,100851.06
2018-11-04T09:12:06.449Z,100850.46
2018-11-04T09:14:34.668Z,100843.28
2018-11-04T09:17:02.900Z,100844.04
2018-11-04T09:19:31.060Z,100842.28
2018-11-04T09:21:59.334Z,100841.91
2018-11-04T09:24:28.623Z,100833.59
2018-11-04T09:26:57.213Z,100827.10
2018-11-04T09:29:25.416Z,100825.75
2018-11-04T09:31:53.662Z,100826.42
2018-11-04T09:34:21.908Z,100831.11
2018-11-04T09:36:50.108Z,100830.64
2018-11-04T09:39:18.568Z,100825.89
2018-11-04T09:41:47.652Z,100820.96
2018-11-04T09:44:16.518Z,100824.39
2018-11-04T09:46:44.678Z,100826.38
2018-11-04T09:49:13.142Z,100829.00
2018-11-04T09:51:41.586Z,100830.06
2018-11-04T09:54:09.763Z,100822.58
2018-11-04T09:56:38.302Z,100830.72
2018-11-04T09:59:06.401Z,100820.36
2018-11-04T10:01:34.599Z,100818.34
2018-11-04T10:04:02.837Z,100814.52
2018-11-04T10:06:31.025Z,100814.25
2018-11-04T10:08:59.292Z,100808.16
2018-11-04T10:11:27.464Z,100803.04
2018-11-04T10:13:55.666Z,100794.76
2018-11-04T10:16:23.800Z,100788.87
2018-11-04T10:18:52.068Z,100786.09
2018-11-04T10:21:20.163Z,100789.09
2018-11-04T10:23:48.408Z,100779.92
2018-11-04T10:26:16.591Z,100783.13
2018-11-04T10:28:44.759Z,100777.86
2018-11-04T10:31:12.959Z,100778.26
2018-11-04T10:33:41.199Z,100774.27
2018-11-04T10:36:09.370Z,100770.89
2018-11-04T10:38:37.559Z,100762.37
2018-11-04T10:41:05.943Z,100758.02
2018-11-04T10:43:34.199Z,100744.91
2018-11-04T10:46:02.400Z,100746.22
2018-11-04T10:48:30.573Z,100741.03
2018-11-04T10:50:58.741Z,100734.75
2018-11-04T10:53:26.906Z,100732.17
2018-11-04T10:55:55.267Z,100736.84
2018-11-04T10:58:23.673Z,100742.19
2018-11-04T11:00:57.531Z,100736.66
2018-11-04T11:03:25.766Z,100745.78
2018-11-04T11:05:54.052Z,100740.31
2018-11-04T11:08:22.202Z,100734.56
2018-11-04T11:10:50.432Z,100730.73
2018-11-04T11:13:18.630Z,100731.58
2018-11-04T11:15:46.848Z,100731.29
2018-11-04T11:18:15.005Z,100726.67
2018-11-04T11:20:43.259Z,100719.75
2018-11-04T11:23:11.510Z,100716.42
2018-11-04T11:25:39.707Z,100715.83
2018-11-04T11:28:07.952Z,100712.45
2018-11-04T11:30:36.174Z,100707.06
2018-11-04T11:33:05.256Z,100701.45
2018-11-04T11:35:33.458Z,100700.05
2018-11-04T11:38:01.855Z,100697.23
2018-11-04T11:40:29.963Z,100697.59
2018-11-04T11:42:58.095Z,100697.05
2018-11-04T11:45:26.425Z,100693.64
2018-11-04T11:47:54.673Z,100693.58
2018-11-04T11:50:22.887Z,100685.13
2018-11-04T11:52:51.186Z,100678.16
2018-11-04T11:55:20.270Z,100667.80
2018-11-04T11:57:48.992Z,100670.94
2018-11-04T12:00:17.232Z,100667.87
2018-11-04T12:02:45.506Z,100661.09
2018-11-04T12:05:13.800Z,100656.69
2018-11-04T12:07:42.000Z,100659.16
2018-11-04T12:10:11.752Z,100653.98
2018-11-04T12:12:40.050Z,100655.42
2018-11-04T12:15:11.116Z,100649.76
2018-11-04T12:17:39.196Z,100640.50
2018-11-04T12:20:09.364Z,100638.98
2018-11-04T12:22:37.558Z,100633.02
2018-11-04T12:25:07.456Z,100625.89
2018-11-04T12:27:35.670Z,100620.96
2018-11-04T12:30:04.614Z,100615.56
2018-11-04T12:32:33.037Z,100616.61
2018-11-04T12:35:01.222Z,100606.69
2018-11-04T12:37:29.348Z,100611.55
2018-11-04T12:39:57.602Z,100616.20
2018-11-04T12:42:25.752Z,100610.93
2018-11-04T12:44:53.906Z,100602.62
2018-11-04T12:47:22.084Z,100616.41
2018-11-04T12:49:50.280Z,100613.86
2018-11-04T12:52:19.172Z,100619.33
2018-11-04T12:54:48.556Z,100616.86
2018-11-04T12:57:17.679Z,100619.40
2018-11-04T12:59:45.878Z,100615.22
2018-11-04T13:02:14.019Z,100606.55
2018-11-04T13:04:42.271Z,100615.91
2018-11-04T13:07:10.477Z,100611.06
2018-11-04T13:09:39.260Z,100599.82
2018-11-04T13:12:07.355Z,100601.41
2018-11-04T13:14:35.523Z,100601.89
2018-11-04T13:17:03.681Z,100592.91
2018-11-04T13:19:31.861Z,100588.36
2018-11-04T13:22:00.026Z,100589.91
2018-11-04T13:24:28.163Z,100586.13
2018-11-04T13:26:56.425Z,100588.21
2018-11-04T13:29:24.699Z,100584.91
2018-11-04T13:31:53.760Z,100583.67
2018-11-04T13:34:21.898Z,100575.22
2018-11-04T13:36:50.849Z,100576.61
2018-11-04T13:39:19.045Z,100574.53
2018-11-04T13:41:47.225Z,100580.55
2018-11-04T13:44:15.407Z,100580.39
2018-11-04T13:46:43.593Z,100576.97
2018-11-04T13:49:12.748Z,100578.09
2018-11-04T13:51:40.953Z,100567.84
2018-11-04T13:54:09.170Z,100563.38
2018-11-04T13:56:37.394Z,100559.55
2018-11-04T13:59:05.632Z,100564.25
2018-11-04T14:01:34.400Z,100563.30
2018-11-04T14:04:02.870Z,100562.25
2018-11-04T14:06:31.016Z,100561.19
2018-11-04T14:08:59.174Z,100554.16
2018-11-04T14:11:27.484Z,100552.20
2018-11-04T14:13:56.194Z,100561.41
2018-11-04T14:16:24.313Z,100549.69
2018-11-04T14:18:52.478Z,100549.61
2018-11-04T14:21:20.798Z,100548.05
2018-11-04T14:23:49.058Z,100548.11
2018-11-04T14:26:17.749Z,100547.38
2018-11-04T14:28:45.915Z,100545.05
2018-11-04T14:31:14.224Z,100548.78
2018-11-04T14:33:42.441Z,100545.97
2018-11-04T14:36:11.582Z,100554.69
2018-11-04T14:38:39.968Z,100551.44
2018-11-04T14:41:10.368Z,100549.92
2018-11-04T14:43:38.659Z,100549.80
2018-11-04T14:46:06.920Z,100547.99
2018-11-04T14:48:35.095Z,100550.78
2018-11-04T14:51:03.305Z,100545.50
2018-11-04T14:53:31.512Z,100540.66
2018-11-04T14:55:59.927Z,100538.52
2018-11-04T14:58:29.069Z,100536.17
2018-11-04T15:00:57.291Z,100524.70
2018-11-04T15:03:25.664Z,100526.62
2018-11-04T15:05:53.867Z,100522.92
2018-11-04T15:08:22.100Z,100523.95
2018-11-04T15:10:50.607Z,100529.69
2018-11-04T15:13:18.795Z,100518.78
2018-11-04T15:15:46.991Z,100519.39
2018-11-04T15:18:15.636Z,100524.42
2018-11-04T15:20:43.825Z,100520.75
2018-11-04T15:23:13.009Z,100515.44
2018-11-04T15:25:41.245Z,100511.23
2018-11-04T15:28:09.661Z,100513.66
2018-11-04T15:30:37.952Z,100509.00
2018-11-04T15:33:06.120Z,100502.02
2018-11-04T15:35:34.331Z,100504.94
2018-11-04T15:38:04.166Z,100495.52
2018-11-04T15:40:32.374Z,100499.67
2018-11-04T15:43:00.535Z,100495.33
2018-11-04T15:45:28.670Z,100500.38
2018-11-04T15:47:57.562Z,100493.89
2018-11-04T15:50:25.730Z,100496.00
2018-11-04T15:52:54.810Z,100495.25
2018-11-04T15:55:23.252Z,100491.94
2018-11-04T15:57:51.678Z,100499.63
2018-11-04T16:00:19.880Z,100496.23
2018-11-04T16:02:48.125Z,100490.53
2018-11-04T16:05:16.652Z,100486.47
2018-11-04T16:07:44.808Z,100492.78
2018-11-04T16:10:13.760Z,100484.53
2018-11-04T16:12:42.508Z,100489.56
2018-11-04T16:15:13.860Z,100494.97
2018-11-04T16:17:42.647Z,100493.80
2018-11-04T16:20:13.834Z,100494.91
2018-11-04T16:22:42.792Z,100491.13
2018-11-04T16:25:12.331Z,100489.05
2018-11-04T16:27:41.090Z,100485.36
2018-11-04T16:30:10.943Z,100484.61
2018-11-04T16:32:39.137Z,100488.16
2018-11-04T16:35:09.429Z,100490.31
2018-11-04T16:37:37.784Z,100496.50
2018-11-04T16:40:06.966Z,100503.31
2018-11-04T16:42:35.802Z,100504.91
2018-11-04T16:45:05.743Z,100502.34
2018-11-04T16:47:33.950Z,100495.15
2018-11-04T16:50:02.336Z,100494.55
2018-11-04T16:52:30.467Z,100492.83
2018-11-04T16:54:58.619Z,100495.98
2018-11-04T16:57:26.922Z,100493.28
2018-11-04T16:59:55.090Z,100490.72
2018-11-04T17:02:23.296Z,100494.17
2018-11-04T17:04:51.434Z,100483.12
2018-11-04T17:07:20.535Z,100477.71
2018-11-04T17:09:48.758Z,100484.84
2018-11-04T17:12:16.934Z,100487.87
2018-11-04T17:14:45.149Z,100490.86
2018-11-04T17:17:13.511Z,100491.70
2018-11-04T17:19:41.664Z,100482.00
2018-11-04T17:22:09.923Z,100485.22
2018-11-04T17:24:39.001Z,100482.92
2018-11-04T17:27:07.341Z,100472.77
2018-11-04T17:29:35.687Z,100473.20
2018-11-04T17:32:03.892Z,100470.48
2018-11-04T17:34:32.936Z,100465.16
2018-11-04T17:37:01.170Z,100462.84
2018-11-04T17:39:29.341Z,100459.62
2018-11-04T17:41:57.528Z,100457.98
2018-11-04T17:44:25.712Z,100452.62
2018-11-04T17:46:53.938Z,100442.25
2018-11-04T17:49:22.103Z,100446.03
2018-11-04T17:51:50.266Z,100450.94
2018-11-04T17:54:18.517Z,100449.44
2018-11-04T17:56:46.888Z,100445.88
2018-11-04T17:59:16.028Z,100436.46
2018-11-04T18:01:44.822Z,100456.81
2018-11-04T18:04:12.929Z,100452.43
2018-11-04T18:06:42.063Z,100453.25
2018-11-04T18:09:10.998Z,100447.25
2018-11-04T18:11:40.094Z,100446.23
2018-11-04T18:14:08.817Z,100446.61
2018-11-04T18:16:37.285Z,100446.75
2018-11-04T18:19:05.687Z,100438.34
2018-11-04T18:21:34.135Z,100437.52
2018-11-04T18:24:02.300Z,100437.84
2018-11-04T18:26:30.700Z,100436.41
2018-11-04T18:28:58.746Z,100435.42
2018-11-04T18:31:26.885Z,100436.41
2018-11-04T18:33:55.343Z,100435.08
2018-11-04T18:36:23.452Z,100443.30
2018-11-04T18:38:51.763Z,100432.72
2018-11-04T18:41:19.969Z,100428.14
2018-11-04T18:43:48.137Z,100425.96
2018-11-04T18:46:16.277Z,100429.55
2018-11-04T18:48:44.457Z,100436.69
2018-11-04T18:51:12.870Z,100441.87
2018-11-04T18:53:41.273Z,100431.28
2018-11-04T18:56:09.427Z,100427.23
2018-11-04T18:58:37.825Z,100425.41
2018-11-04T19:01:05.983Z,100413.47
2018-11-04T19:03:34.101Z,100416.20
2018-11-04T19:06:02.268Z,100420.78
2018-11-04T19:08:30.424Z,100425.36
2018-11-04T19:10:58.570Z,100428.84
2018-11-04T19:13:26.677Z,100429.56
2018-11-04T19:15:56.405Z,100416.65
2018-11-04T19:18:24.626Z,100416.45
2018-11-04T19:20:52.912Z,100402.01
2018-11-04T19:23:21.131Z,100404.80
2018-11-04T19:25:49.417Z,100405.20
2018-11-04T19:28:18.350Z,100409.63
2018-11-04T19:30:46.699Z,100409.19
2018-11-04T19:33:16.396Z,100407.91
2018-11-04T19:35:44.586Z,100402.86
2018-11-04T19:38:19.556Z,100407.16
2018-11-04T19:40:47.770Z,100411.31
2018-11-04T19:43:16.705Z,100401.44
2018-11-04T19:45:44.892Z,100400.73
2018-11-04T19:48:13.200Z,100420.50
2018-11-04T19:50:41.296Z,100413.20
2018-11-04T19:53:10.403Z,100413.44
2018-11-04T19:55:38.550Z,100409.09
2018-11-04T19:58:07.298Z,100406.00
2018-11-04T20:00:35.574Z,100411.31
2018-11-04T20:03:03.782Z,100408.34
2018-11-04T20:05:32.140Z,100422.49
2018-11-04T20:08:00.327Z,100407.33
2018-11-04T20:10:28.612Z,100385.64
2018-11-04T20:13:03.148Z,100385.70
2018-11-04T20:15:31.436Z,100390.42
2018-11-04T20:17:59.603Z,100388.16
2018-11-04T20:20:27.898Z,100381.59
2018-11-04T20:22:56.001Z,100386.73
2018-11-04T20:25:29.774Z,100389.97
2018-11-04T20:27:57.984Z,100393.91
2018-11-04T20:30:26.730Z,100394.08
2018-11-04T20:33:02.446Z,100393.73
2018-11-04T20:35:30.659Z,100389.92
2018-11-04T20:37:58.780Z,100386.10
2018-11-04T20:40:32.525Z,100377.56
2018-11-04T20:43:00.684Z,100369.47
2018-11-04T20:45:29.677Z,100368.89
2018-11-04T20:48:03.656Z,100371.48
2018-11-04T20:50:39.700Z,100371.33
2018-11-04T20:53:08.411Z,100364.98
2018-11-04T20:55:42.477Z,100364.53
2018-11-04T20:58:11.324Z,100360.98
2018-11-04T21:00:40.066Z,100369.03
2018-11-04T21:03:08.441Z,100369.20
2018-11-04T21:05:36.648Z,100362.45
2018-11-04T21:08:05.701Z,100362.73
2018-11-04T21:10:33.866Z,100367.95
2018-11-04T21:13:02.083Z,100365.08
2018-11-04T21:15:30.276Z,100366.53
2018-11-04T21:17:58.437Z,100355.97
2018-11-04T21:20:26.596Z,100353.05
2018-11-04T21:22:54.761Z,100352.45
2018-11-04T21:25:22.947Z,100358.29
2018-11-04T21:27:51.092Z,100352.05
2018-11-04T21:30:19.332Z,100353.24
2018-11-04T21:32:47.493Z,100357.61
2018-11-04T21:35:15.613Z,100362.34
2018-11-04T21:37:43.836Z,100349.76
2018-11-04T21:40:11.937Z,100328.23
2018-11-04T21:42:40.277Z,100330.20
2018-11-04T21:45:10.774Z,100334.31
2018-11-04T21:47:39.006Z,100332.27
2018-11-04T21:50:08.309Z,100326.85
2018-11-04T21:52:36.468Z,100331.86
2018-11-04T21:55:06.219Z,100330.02
2018-11-04T21:57:34.415Z,100323.03
2018-11-04T22:00:02.470Z,100332.06
2018-11-04T22:02:30.766Z,100334.08
2018-11-04T22:04:58.889Z,100331.89
2018-11-04T22:07:27.026Z,100321.98
2018-11-04T22:09:55.139Z,100332.50
2018-11-04T22:12:23.824Z,100338.27
2018-11-04T22:14:51.976Z,100344.74
2018-11-04T22:17:20.068Z,100327.48
2018-11-04T22:19:48.307Z,100341.80
2018-11-04T22:22:16.487Z,100346.45
2018-11-04T22:24:44.613Z,100338.44
2018-11-04T22:27:12.905Z,100341.14
2018-11-04T22:29:41.079Z,100333.05
2018-11-04T22:32:09.516Z,100329.56
2018-11-04T22:34:37.668Z,100328.82
2018-11-04T22:37:05.976Z,100326.03
2018-11-04T22:39:34.117Z,100327.61
2018-11-04T22:42:02.340Z,100326.13
2018-11-04T22:44:30.734Z,100318.48
2018-11-04T22:46:58.875Z,100310.44
2018-11-04T22:49:27.099Z,100310.75
2018-11-04T22:51:55.521Z,100311.73
2018-11-04T22:54:23.624Z,100310.30
2018-11-04T22:56:51.751Z,100310.20
2018-11-04T22:59:19.911Z,100314.72
2018-11-04T23:01:48.069Z,100315.89
2018-11-04T23:04:20.931Z,100314.86
2018-11-04T23:06:49.035Z,100307.22
2018-11-04T23:09:17.227Z,100302.84
2018-11-04T23:11:45.501Z,100304.42
2018-11-04T23:14:13.683Z,100299.31
2018-11-04T23:16:41.792Z,100284.31
2018-11-04T23:19:09.918Z,100286.12
2018-11-04T23:21:38.197Z,100300.23
2018-11-04T23:24:06.875Z,100283.73
2018-11-04T23:26:35.025Z,100271.49
2018-11-04T23:29:03.335Z,100269.03
2018-11-04T23:31:31.816Z,100266.78
2018-11-04T23:33:59.937Z,100272.02
2018-11-04T23:36:28.222Z,100274.72
2018-11-04T23:38:56.361Z,100272.98
2018-11-04T23:41:24.663Z,100276.06
2018-11-04T23:43:52.776Z,100271.55
2018-11-04T23:46:21.069Z,100277.50
2018-11-04T23:48:49.273Z,100260.37
2018-11-04T23:51:17.401Z,100261.80
2018-11-04T23:53:45.495Z,100256.08
2018-11-04T23:56:13.620Z,100256.54
2018-11-04T23:58:41.893Z,100251.89
